Keauhou, Hawaii
Current Conditions -  °F | °C
As of 1:53 PM on Sunday 25 Jan 2015 (Local Time) from PHKO Reporting Station
Overcast Overcast  
Wind Chill: 80°   Ceiling: 4900
Heat Index: 82°   Visibility: 10mi
Dew Point: 67°   Wind: 12mph
Humidity: 64%   Direction: 330°NNW
Pressure: 29.91"   Gusts: NA
Location:  19.56°N, 155.96°W
Report Text: PHKO 252353Z 33010KT 10SM BKN049 OVC060 27/19 A2991 RMK AO2 SLP129 60000 T02670194 10278 20239 58029 $
Loading
Personal Weather Stations






























Interactive Weather Map New forecast layout! Learn more

10-Day Weather Forecast

Advertisements
Track Severe Weather on mobile